Time;durP1;ratioP1;P1;durP2;ratioP2;P2;SDS_P1;SDS_P2;PMS_P1;PMS_P2;Temp;Humidity;BMP_temperature;BMP_pressure;BME280_temperature;BME280_humidity;BME280_pressure;Samples;Min_cycle;Max_cycle;Signal;HPM_P1;HPM_P2
2023/07/07 18:11:27;;;;;;;13.57;6.30;;;;;;;26.12;43.10;100743.31;5130333;27;20404;-74
2023/07/07 18:13:53;;;;;;;18.35;9.07;;;;;;;26.05;44.63;100732.34;5129355;27;20106;-71
2023/07/07 18:16:42;;;;;;;18.17;6.15;;;;;;;25.98;43.88;100733.47;5130611;27;20540;-71
2023/07/07 18:19:11;;;;;;;17.50;5.88;;;;;;;26.01;42.50;100746.78;5108813;27;20052;-72
2023/07/07 18:21:37;;;;;;;15.50;4.60;;;;;;;25.98;41.42;100748.06;5131756;27;20039;-71
2023/07/07 18:24:03;;;;;;;18.10;4.72;;;;;;;25.85;41.02;100728.91;5126527;27;20540;-72
2023/07/07 18:26:34;;;;;;;7.43;4.82;;;;;;;25.90;40.75;100751.06;5128363;27;20058;-71
2023/07/07 18:29:17;;;;;;;11.82;4.88;;;;;;;25.89;41.18;100768.63;5125546;27;20113;-72
2023/07/07 18:31:42;;;;;;;16.92;4.70;;;;;;;25.86;41.03;100768.22;5134677;27;20542;-71
2023/07/07 18:34:09;;;;;;;12.95;5.25;;;;;;;25.70;41.14;100752.28;5141497;27;20061;-72
2023/07/07 18:36:37;;;;;;;11.48;4.35;;;;;;;25.73;41.25;100754.59;5137896;27;20042;-72
2023/07/07 18:39:23;;;;;;;9.40;4.57;;;;;;;25.75;41.73;100771.69;5130206;27;20095;-73
2023/07/07 18:41:49;;;;;;;12.93;4.68;;;;;;;25.70;41.98;100785.25;5123071;27;20512;-73
2023/07/07 18:44:14;;;;;;;14.40;4.45;;;;;;;25.64;42.18;100780.63;5132171;27;20042;-73
2023/07/07 18:46:41;;;;;;;16.77;5.20;;;;;;;25.46;42.17;100767.66;5131622;27;20066;-72
2023/07/07 18:49:11;;;;;;;11.02;4.68;;;;;;;25.52;42.37;100786.00;5127233;27;20481;-72
2023/07/07 18:51:41;;;;;;;16.52;5.25;;;;;;;25.45;42.52;100784.34;5124791;27;20120;-73
2023/07/07 18:54:07;;;;;;;16.63;5.63;;;;;;;25.37;42.29;100788.19;5128722;27;20056;-74
2023/07/07 18:56:34;;;;;;;12.20;4.72;;;;;;;25.29;42.72;100785.66;5131822;27;20039;-72
2023/07/07 18:58:59;;;;;;;24.05;5.82;;;;;;;25.06;42.82;100762.53;5129088;27;20027;-72
2023/07/07 19:01:28;;;;;;;18.70;5.13;;;;;;;25.23;42.51;100803.00;5129298;27;20030;-72
2023/07/07 19:03:54;;;;;;;16.77;5.30;;;;;;;25.10;42.54;100791.22;5129880;27;20035;-73
2023/07/07 19:06:31;;;;;;;13.27;5.20;;;;;;;25.12;42.87;100808.34;5127001;27;20452;-72
2023/07/07 19:08:58;;;;;;;13.25;4.72;;;;;;;24.92;42.83;100785.63;5129516;27;20055;-72
2023/07/07 19:11:23;;;;;;;14.52;6.25;;;;;;;24.93;42.71;100801.00;5130901;27;20446;-72
2023/07/07 19:13:49;;;;;;;12.88;5.90;;;;;;;24.89;43.02;100799.75;5131824;27;20043;-73
2023/07/07 19:16:24;;;;;;;9.25;5.10;;;;;;;24.83;42.45;100812.44;5128943;27;20024;-72
2023/07/07 19:18:53;;;;;;;10.35;5.07;;;;;;;24.68;42.61;100789.91;5125260;27;20034;-72
2023/07/07 19:21:23;;;;;;;9.85;5.50;;;;;;;24.75;42.37;100807.19;5112186;27;20019;-74
2023/07/07 19:23:52;;;;;;;10.85;4.97;;;;;;;24.82;42.24;100824.47;5108051;27;20055;-72
2023/07/07 19:26:18;;;;;;;12.10;4.50;;;;;;;24.80;42.31;100825.75;5121939;27;20057;-71
2023/07/07 19:28:44;;;;;;;12.25;4.38;;;;;;;24.65;42.22;100804.03;5114667;27;20729;-71
2023/07/07 19:31:12;;;;;;;12.07;4.65;;;;;;;24.73;42.12;100820.25;5118030;27;20433;-73
2023/07/07 19:33:38;;;;;;;10.30;4.43;;;;;;;24.65;42.32;100817.75;5123832;27;20030;-72
2023/07/07 19:36:19;;;;;;;7.40;4.50;;;;;;;24.71;42.27;100838.00;5116089;27;20546;-73
2023/07/07 19:38:46;;;;;;;7.07;4.32;;;;;;;24.57;42.52;100825.34;5109440;27;20047;-74
2023/07/07 19:41:15;;;;;;;5.10;3.70;;;;;;;24.65;42.28;100844.34;5113025;27;20096;-74
2023/07/07 19:43:42;;;;;;;10.82;4.45;;;;;;;24.55;42.14;100822.81;5112784;27;20103;-72
2023/07/07 19:46:16;;;;;;;8.15;4.28;;;;;;;24.60;42.24;100835.88;5119650;27;20034;-72
2023/07/07 19:48:42;;;;;;;8.30;4.30;;;;;;;24.53;42.19;100832.31;5119446;27;20598;-73
2023/07/07 19:51:13;;;;;;;8.05;4.00;;;;;;;24.52;42.15;100823.22;5112709;27;20051;-73
2023/07/07 19:53:39;;;;;;;9.57;4.75;;;;;;;24.48;42.20;100821.13;5117571;27;20032;-72
2023/07/07 19:56:04;;;;;;;5.70;3.80;;;;;;;24.54;42.05;100839.47;5113842;27;20027;-73
2023/07/07 19:58:30;;;;;;;8.48;4.78;;;;;;;24.38;42.21;100813.34;5113070;27;20066;-74
2023/07/07 20:00:55;;;;;;;6.15;4.40;;;;;;;24.46;42.07;100832.31;5116211;27;20076;-75
2023/07/07 20:03:21;;;;;;;8.13;4.22;;;;;;;24.38;42.06;100825.13;5116621;27;20030;-73
2023/07/07 20:05:46;;;;;;;4.93;3.53;;;;;;;24.32;42.31;100823.22;5109079;27;20042;-74
2023/07/07 20:08:15;;;;;;;7.68;4.18;;;;;;;24.42;42.33;100844.75;5116003;27;20393;-73
2023/07/07 20:10:42;;;;;;;5.68;3.63;;;;;;;24.40;42.67;100841.38;5117139;27;20055;-73
2023/07/07 20:13:11;;;;;;;7.63;3.70;;;;;;;24.37;42.65;100845.38;5116128;27;20491;-74
2023/07/07 20:15:41;;;;;;;6.22;3.78;;;;;;;24.35;42.61;100847.47;5111462;27;20027;-73
2023/07/07 20:18:12;;;;;;;5.07;3.47;;;;;;;24.34;42.69;100844.94;5118580;27;20109;-73
2023/07/07 20:20:37;;;;;;;7.30;4.10;;;;;;;24.27;42.64;100835.88;5112847;27;20075;-72
2023/07/07 20:23:10;;;;;;;7.25;3.72;;;;;;;24.31;42.50;100848.09;5118179;27;20035;-73
2023/07/07 20:25:36;;;;;;;9.60;4.53;;;;;;;24.24;42.71;100841.78;5111469;27;20080;-73
2023/07/07 20:28:01;;;;;;;4.55;3.30;;;;;;;24.20;42.79;100843.28;5116897;27;20036;-72
2023/07/07 20:30:27;;;;;;;8.35;3.92;;;;;;;24.16;42.66;100845.59;5114515;27;20035;-72
2023/07/07 20:32:53;;;;;;;6.28;3.88;;;;;;;24.13;42.82;100846.03;5120838;27;20031;-72
2023/07/07 20:35:22;;;;;;;5.90;3.83;;;;;;;24.13;42.72;100848.75;5118971;27;20114;-74
2023/07/07 20:37:49;;;;;;;5.97;3.83;;;;;;;24.10;43.18;100849.19;5111247;27;20046;-72
2023/07/07 20:40:21;;;;;;;7.63;4.22;;;;;;;24.18;43.00;100867.28;5114432;27;20024;-71
2023/07/07 20:42:48;;;;;;;7.25;3.78;;;;;;;24.09;43.05;100857.59;5108478;27;20498;-73
2023/07/07 20:45:14;;;;;;;10.10;3.47;;;;;;;24.02;42.81;100843.06;5114502;27;20032;-73
2023/07/07 20:47:43;;;;;;;9.63;3.92;;;;;;;24.09;43.24;100863.09;5115457;27;20036;-74
2023/07/07 20:50:17;;;;;;;5.60;3.95;;;;;;;24.09;43.03;100872.13;5120850;27;20028;-75
2023/07/07 20:52:43;;;;;;;5.88;3.60;;;;;;;24.08;43.03;100864.13;5109683;27;20070;-74
2023/07/07 20:55:12;;;;;;;6.07;4.00;;;;;;;24.06;43.17;100869.81;5110407;27;20455;-75
2023/07/07 20:57:37;;;;;;;6.72;3.58;;;;;;;23.90;43.21;100847.41;5109099;27;20568;-74
2023/07/07 21:00:14;;;;;;;5.55;3.72;;;;;;;23.88;43.30;100853.09;5108051;27;20027;-73
2023/07/07 21:02:40;;;;;;;6.70;3.70;;;;;;;23.83;43.17;100843.81;5112333;27;20093;-74
2023/07/07 21:05:05;;;;;;;7.38;4.00;;;;;;;23.92;43.23;100862.59;5113970;27;20069;-75
2023/07/07 21:07:31;;;;;;;5.85;3.45;;;;;;;23.88;43.65;100866.81;5113820;27;20023;-75
2023/07/07 21:09:57;;;;;;;7.00;3.63;;;;;;;23.82;43.26;100855.81;5125818;27;20047;-75
2023/07/07 21:12:22;;;;;;;24.02;5.85;;;;;;;23.92;43.44;100881.78;5112647;27;20049;-75
2023/07/07 21:14:47;;;;;;;6.18;3.55;;;;;;;23.89;43.56;100875.88;5117983;27;20027;-73
2023/07/07 21:17:18;;;;;;;8.27;4.10;;;;;;;23.83;43.94;100861.09;5112690;27;20028;-74
2023/07/07 21:19:44;;;;;;;4.00;3.45;;;;;;;23.79;43.52;100850.75;5113017;27;20023;-74
2023/07/07 21:22:10;;;;;;;4.97;3.65;;;;;;;23.69;43.64;100842.94;5111084;27;20076;-75
2023/07/07 21:24:35;;;;;;;7.28;3.63;;;;;;;23.83;43.91;100863.84;5116271;27;20023;-75
2023/07/07 21:27:01;;;;;;;7.32;3.55;;;;;;;23.65;44.28;100855.38;5112456;27;20027;-75
2023/07/07 21:29:26;;;;;;;9.30;3.90;;;;;;;23.67;44.09;100856.00;5114011;27;20035;-74
2023/07/07 21:31:51;;;;;;;8.35;3.50;;;;;;;23.59;44.13;100847.97;5122361;27;20055;-75
2023/07/07 21:34:17;;;;;;;5.53;3.50;;;;;;;23.70;44.25;100873.94;5147777;27;20042;-75
2023/07/07 21:36:43;;;;;;;6.18;4.25;;;;;;;23.50;44.42;100845.59;5116562;27;20037;-73
2023/07/07 21:39:26;;;;;;;6.07;3.55;;;;;;;23.55;44.66;100865.88;5110408;27;20038;-74
2023/07/07 21:41:51;;;;;;;6.18;3.42;;;;;;;23.31;44.77;100836.28;5113858;27;20087;-74
2023/07/07 21:44:17;;;;;;;7.50;4.18;;;;;;;23.42;44.86;100864.97;5113695;27;20118;-73
2023/07/07 21:46:42;;;;;;;6.28;3.55;;;;;;;23.47;44.81;100878.91;5107675;27;20653;-75
2023/07/07 21:49:13;;;;;;;9.25;4.10;;;;;;;23.36;45.34;100871.25;5118985;27;20035;-75
2023/07/07 21:51:39;;;;;;;6.28;3.60;;;;;;;23.19;45.56;100853.47;5116359;27;20457;-73
2023/07/07 21:54:04;;;;;;;9.20;3.70;;;;;;;23.06;45.48;100832.34;5113433;27;20110;-72
2023/07/07 21:56:31;;;;;;;10.60;4.00;;;;;;;23.24;45.31;100876.47;5110875;27;20119;-74
2023/07/07 21:59:09;;;;;;;5.90;3.83;;;;;;;23.25;45.82;100878.16;5112863;27;20042;-75
2023/07/07 22:01:34;;;;;;;6.55;3.35;;;;;;;23.15;46.07;100874.91;5108336;28;20066;-74
2023/07/07 22:03:59;;;;;;;1999.90;429.38;;;;;;;23.16;46.29;100884.81;5116158;27;20058;-74
2023/07/07 22:06:25;;;;;;;458.90;96.13;;;;;;;22.93;46.82;100858.78;5109379;27;20019;-77
2023/07/07 22:08:50;;;;;;;21.42;7.47;;;;;;;22.92;47.26;100862.56;5111998;27;20027;-74
2023/07/07 22:11:17;;;;;;;14.95;5.80;;;;;;;22.99;47.37;100883.44;5114773;28;20041;-75
2023/07/07 22:13:43;;;;;;;6.75;3.65;;;;;;;22.89;48.10;100879.41;5110282;28;20031;-74
2023/07/07 22:16:14;;;;;;;6.40;3.30;;;;;;;22.76;48.23;100871.91;5115861;28;20027;-73
2023/07/07 22:18:39;;;;;;;6.75;3.70;;;;;;;22.69;48.34;100868.31;5112982;28;21100;-73
2023/07/07 22:21:12;;;;;;;13.15;3.80;;;;;;;22.68;48.65;100885.75;5113369;28;20102;-73
2023/07/07 22:23:38;;;;;;;5.85;3.58;;;;;;;22.60;49.01;100882.34;5111907;28;20119;-73
2023/07/07 22:26:21;;;;;;;10.68;3.63;;;;;;;22.52;49.29;100886.06;5107841;27;20051;-74
2023/07/07 22:28:48;;;;;;;9.40;4.82;;;;;;;22.44;49.53;100880.69;5111239;28;20038;-76
2023/07/07 22:31:16;;;;;;;12.10;4.07;;;;;;;22.33;50.04;100876.63;5111131;28;20039;-75
2023/07/07 22:33:41;;;;;;;7.68;3.78;;;;;;;22.26;50.00;100872.97;5110954;28;20080;-75
2023/07/07 22:36:19;;;;;;;8.13;4.35;;;;;;;22.20;50.57;100881.09;5115513;27;20027;-76
2023/07/07 22:38:45;;;;;;;7.32;3.75;;;;;;;22.03;50.94;100855.09;5110354;28;20118;-76
2023/07/07 22:41:15;;;;;;;6.88;4.10;;;;;;;22.11;50.64;100871.34;5111795;28;20103;-75
2023/07/07 22:43:40;;;;;;;11.05;4.05;;;;;;;21.94;50.96;100857.13;5107495;28;20517;-74
2023/07/07 22:46:31;;;;;;;8.10;4.07;;;;;;;21.86;51.14;100845.47;5109123;28;20056;-76
2023/07/07 22:48:56;;;;;;;13.93;3.83;;;;;;;21.82;51.52;100846.88;5108023;27;20114;-75
2023/07/07 22:51:22;;;;;;;6.70;4.20;;;;;;;21.94;51.57;100870.78;5112622;28;20399;-76
2023/07/07 22:53:48;;;;;;;4.82;3.67;;;;;;;21.83;51.43;100852.16;5117131;28;20019;-76
2023/07/07 22:56:34;;;;;;;7.13;3.78;;;;;;;21.87;51.78;100863.53;5114058;27;20076;-76
2023/07/07 22:59:01;;;;;;;5.40;3.60;;;;;;;21.85;51.97;100861.00;5122454;27;20106;-76
2023/07/07 23:01:27;;;;;;;7.13;3.97;;;;;;;21.82;52.46;100857.81;5114340;27;20080;-75
2023/07/07 23:04:03;;;;;;;5.70;3.63;;;;;;;21.77;52.98;100854.81;5120801;27;20077;-73
2023/07/07 23:06:29;;;;;;;9.38;3.97;;;;;;;21.63;52.69;100842.00;5117230;27;20104;-76
2023/07/07 23:09:00;;;;;;;8.50;4.00;;;;;;;21.66;53.10;100845.22;5109249;27;20047;-75
2023/07/07 23:11:26;;;;;;;4.55;3.20;;;;;;;21.51;53.35;100828.03;5117674;27;20548;-75
2023/07/07 23:13:51;;;;;;;7.68;3.90;;;;;;;21.51;53.47;100828.03;5115876;27;20110;-74
2023/07/07 23:16:19;;;;;;;6.78;4.20;;;;;;;21.47;54.31;100839.53;5110163;27;20030;-74
2023/07/07 23:18:45;;;;;;;9.05;4.72;;;;;;;21.53;53.61;100853.25;5114133;27;20031;-74
2023/07/07 23:21:15;;;;;;;7.13;4.57;;;;;;;21.48;53.86;100843.97;5114824;27;20041;-74
2023/07/07 23:23:41;;;;;;;6.05;4.07;;;;;;;21.43;53.95;100852.72;5112371;27;20051;-74
2023/07/07 23:26:15;;;;;;;8.25;4.30;;;;;;;21.39;54.61;100856.03;5111743;27;20046;-73
2023/07/07 23:28:41;;;;;;;7.38;4.05;;;;;;;21.17;55.13;100832.44;5114608;27;20035;-74
2023/07/07 23:31:09;;;;;;;5.00;4.13;;;;;;;21.28;55.29;100859.25;5125611;27;20023;-74
2023/07/07 23:33:35;;;;;;;7.43;4.38;;;;;;;21.24;55.47;100852.47;5119142;27;20023;-74
2023/07/07 23:36:02;;;;;;;7.07;4.18;;;;;;;21.20;56.01;100853.88;5117578;27;20027;-73
2023/07/07 23:38:28;;;;;;;7.05;4.32;;;;;;;20.90;56.07;100816.72;5115611;27;20089;-73
2023/07/07 23:40:53;;;;;;;8.93;4.20;;;;;;;21.05;56.53;100848.44;5112574;27;20032;-73
2023/07/07 23:43:19;;;;;;;7.25;3.65;;;;;;;20.90;57.23;100823.03;5114947;27;20031;-74
2023/07/07 23:45:46;;;;;;;6.60;4.10;;;;;;;20.89;57.58;100831.41;5112423;27;20504;-74
2023/07/07 23:48:14;;;;;;;7.57;4.07;;;;;;;20.97;57.64;100864.06;5115718;27;20096;-74
2023/07/07 23:51:00;;;;;;;8.77;4.50;;;;;;;20.91;57.94;100854.72;5110241;27;20031;-74
2023/07/07 23:53:27;;;;;;;7.03;3.75;;;;;;;20.83;58.84;100852.06;5121215;27;20019;-73
2023/07/07 23:55:54;;;;;;;8.93;4.45;;;;;;;20.66;58.85;100831.47;5116547;27;20034;-74
2023/07/07 23:58:25;;;;;;;7.53;3.65;;;;;;;20.76;59.40;100847.56;5109517;27;20031;-74
